Time;durP1;ratioP1;P1;durP2;ratioP2;P2;SDS_P1;SDS_P2;PMS_P1;PMS_P2;Temp;Humidity;BMP_temperature;BMP_pressure;BME280_temperature;BME280_humidity;BME280_pressure;Samples;Min_cycle;Max_cycle;Signal;HPM_P1;HPM_P2
2022/09/10 00:01:42;;;;;;;9.25;2.30;;;;;;;15.00;100.00;97757.69;5042982;28;20397;-92
2022/09/10 00:04:13;;;;;;;7.68;2.63;;;;;;;15.29;100.00;97763.47;5036403;28;20111;-91
2022/09/10 00:06:40;;;;;;;9.27;2.67;;;;;;;15.02;100.00;97759.34;5023512;28;20029;-92
2022/09/10 00:09:06;;;;;;;13.55;2.90;;;;;;;15.21;100.00;97758.53;5024703;28;20071;-92
2022/09/10 00:11:33;;;;;;;14.73;2.80;;;;;;;15.01;100.00;97764.66;5024553;28;20029;-94
2022/09/10 00:14:00;;;;;;;7.43;2.47;;;;;;;14.91;100.00;97766.84;5034379;28;20037;-92
2022/09/10 00:16:27;;;;;;;11.35;2.63;;;;;;;14.84;100.00;97770.66;5029971;28;20064;-93
2022/09/10 00:18:53;;;;;;;10.25;2.55;;;;;;;15.02;100.00;97767.22;5039506;28;20144;-92
2022/09/10 00:21:20;;;;;;;8.43;2.25;;;;;;;15.08;100.00;97762.63;5030788;28;20112;-91
2022/09/10 00:23:46;;;;;;;9.80;2.53;;;;;;;15.02;100.00;97769.00;5028461;28;20095;-92
2022/09/10 00:26:23;;;;;;;8.27;2.15;;;;;;;15.29;100.00;97766.09;5032328;28;20021;-93
2022/09/10 00:28:50;;;;;;;10.90;2.17;;;;;;;15.04;100.00;97756.66;5025350;28;21462;-92
2022/09/10 00:31:16;;;;;;;8.27;1.80;;;;;;;15.18;100.00;97759.56;5039475;28;20025;-92
2022/09/10 00:33:42;;;;;;;14.68;2.22;;;;;;;15.04;100.00;97753.19;5020194;28;20037;-92
2022/09/10 00:36:17;;;;;;;7.13;1.90;;;;;;;15.02;100.00;97758.50;5026448;28;20485;-92
2022/09/10 00:38:42;;;;;;;10.45;1.70;;;;;;;15.12;100.00;97757.19;5025686;28;20782;-92
2022/09/10 00:41:08;;;;;;;10.45;1.73;;;;;;;15.01;100.00;97767.28;5027723;28;20034;-92
2022/09/10 00:43:47;;;;;;;11.57;1.80;;;;;;;15.13;100.00;97755.41;5019284;28;20367;-93
2022/09/10 00:46:21;;;;;;;10.60;1.70;;;;;;;15.13;100.00;97758.06;5019970;28;20075;-93
2022/09/10 00:48:46;;;;;;;10.55;1.70;;;;;;;15.11;100.00;97755.47;5062571;28;20044;-93
2022/09/10 00:51:12;;;;;;;10.88;1.70;;;;;;;15.18;100.00;97759.56;5026762;28;20040;-92
2022/09/10 00:53:39;;;;;;;6.38;1.65;;;;;;;15.08;100.00;97771.34;5024156;28;20123;-92
2022/09/10 00:56:06;;;;;;;8.90;1.70;;;;;;;14.80;100.00;97772.53;5032950;28;20029;-92
2022/09/10 00:58:32;;;;;;;11.15;2.00;;;;;;;15.11;100.00;97773.00;5035417;28;20068;-92
2022/09/10 01:01:01;;;;;;;10.70;1.85;;;;;;;14.97;100.00;97776.22;5029662;28;22609;-92
2022/09/10 01:03:31;;;;;;;9.43;1.70;;;;;;;14.96;100.00;97777.13;5021785;28;20135;-93
2022/09/10 01:05:57;;;;;;;9.52;1.70;;;;;;;14.84;100.00;97781.13;5023469;28;20044;-93
2022/09/10 01:08:23;;;;;;;7.00;1.50;;;;;;;14.78;100.00;97789.25;5026297;28;20090;-92
2022/09/10 01:11:05;;;;;;;7.80;1.60;;;;;;;14.89;100.00;97781.81;5021210;28;20025;-92
2022/09/10 01:14:06;;;;;;;6.63;1.50;;;;;;;14.92;100.00;97784.31;5040437;28;20029;-92
2022/09/10 01:16:41;;;;;;;6.25;1.52;;;;;;;14.86;100.00;97774.03;5020367;28;20040;-93
2022/09/10 01:19:23;;;;;;;8.55;1.60;;;;;;;15.16;100.00;97782.38;5027953;28;20025;-92
2022/09/10 01:22:02;;;;;;;8.98;1.67;;;;;;;15.18;100.00;97787.56;5020072;28;20048;-93
2022/09/10 01:25:00;;;;;;;6.43;1.60;;;;;;;15.02;100.00;97795.25;5025726;28;20029;-92
2022/09/10 01:27:36;;;;;;;8.52;1.60;;;;;;;15.20;100.00;97788.38;5022629;28;20553;-92
2022/09/10 01:30:31;;;;;;;8.15;1.90;;;;;;;15.25;100.00;97791.63;5017187;28;20064;-93
2022/09/10 01:33:29;;;;;;;7.40;1.75;;;;;;;15.08;100.00;97795.00;5024922;28;20045;-92
2022/09/10 01:36:08;;;;;;;8.18;1.48;;;;;;;15.40;100.00;97795.38;5027267;28;20914;-91
2022/09/10 01:38:42;;;;;;;6.72;1.30;;;;;;;15.28;100.00;97801.16;5035281;28;20044;-91
2022/09/10 01:41:09;;;;;;;6.53;1.50;;;;;;;15.50;100.00;97795.81;5025332;28;20041;-92
2022/09/10 01:43:35;;;;;;;6.53;1.50;;;;;;;15.20;100.00;97804.13;5023936;28;20044;-91
2022/09/10 01:46:34;;;;;;;7.47;2.22;;;;;;;15.07;100.00;97805.56;5033073;28;20079;-93
2022/09/10 01:49:06;;;;;;;6.40;1.58;;;;;;;15.42;100.00;97806.69;5015812;28;22121;-92
2022/09/10 01:51:43;;;;;;;12.10;1.83;;;;;;;15.13;100.00;97808.78;5020744;28;20034;-92
2022/09/10 01:54:26;;;;;;;7.65;1.60;;;;;;;15.47;100.00;97806.47;5013899;28;20049;-92
2022/09/10 01:57:13;;;;;;;6.85;2.08;;;;;;;15.19;100.00;97813.75;5023825;28;20040;-92
2022/09/10 02:00:08;;;;;;;7.07;1.45;;;;;;;15.11;100.00;97815.84;5026753;28;20566;-92
2022/09/10 02:03:04;;;;;;;8.63;1.35;;;;;;;15.13;100.00;97816.66;5014174;28;20509;-92
2022/09/10 02:05:34;;;;;;;5.20;1.38;;;;;;;14.75;100.00;97821.75;5025477;28;20042;-95
2022/09/10 02:08:10;;;;;;;6.40;1.33;;;;;;;15.05;100.00;97823.16;5020155;28;20033;-91
2022/09/10 02:10:55;;;;;;;8.85;1.45;;;;;;;15.01;100.00;97820.66;5024084;28;20037;-93
2022/09/10 02:13:22;;;;;;;3.85;1.10;;;;;;;15.12;100.00;97822.00;5021038;28;20811;-93
2022/09/10 02:15:51;;;;;;;6.50;1.40;;;;;;;14.99;100.00;97824.28;5024280;28;20060;-93
2022/09/10 02:18:18;;;;;;;5.75;1.20;;;;;;;15.15;100.00;97833.19;5024048;28;20040;-91
2022/09/10 02:20:45;;;;;;;6.38;1.35;;;;;;;14.68;100.00;97823.78;5022856;28;20102;-91
2022/09/10 02:23:12;;;;;;;4.75;1.40;;;;;;;14.71;100.00;97820.19;5025779;28;20036;-92
2022/09/10 02:25:38;;;;;;;6.65;1.70;;;;;;;14.77;100.00;97825.16;5021470;28;20036;-92
2022/09/10 02:28:05;;;;;;;7.00;1.80;;;;;;;14.72;100.00;97821.88;5050135;28;20041;-92
2022/09/10 02:30:31;;;;;;;6.65;1.70;;;;;;;14.76;100.00;97819.97;5028161;28;20120;-93
2022/09/10 02:32:56;;;;;;;8.60;1.63;;;;;;;15.07;100.00;97823.94;5026070;28;20029;-94
2022/09/10 02:35:22;;;;;;;8.32;1.67;;;;;;;14.86;100.00;97826.53;5022333;28;20021;-93
2022/09/10 02:37:49;;;;;;;7.32;1.83;;;;;;;14.99;100.00;97835.63;5023853;28;20042;-92
2022/09/10 02:40:18;;;;;;;11.05;1.80;;;;;;;14.97;100.00;97833.97;5026650;28;20049;-93
2022/09/10 02:42:45;;;;;;;7.47;1.77;;;;;;;15.09;100.00;97828.22;5027068;28;20044;-94
2022/09/10 02:45:12;;;;;;;8.38;1.63;;;;;;;15.13;100.00;97831.59;5031511;28;20021;-93
2022/09/10 02:47:38;;;;;;;7.60;1.70;;;;;;;15.16;100.00;97844.56;5016291;28;20041;-91
2022/09/10 02:50:05;;;;;;;11.75;2.03;;;;;;;15.07;100.00;97843.16;5017957;28;20914;-90
2022/09/10 02:52:30;;;;;;;5.53;1.50;;;;;;;15.32;100.00;97837.75;5019822;28;20037;-90
2022/09/10 02:54:56;;;;;;;6.30;1.60;;;;;;;15.34;100.00;97841.16;5026310;28;20045;-89
2022/09/10 02:57:21;;;;;;;7.10;1.60;;;;;;;15.29;100.00;97843.13;5022616;28;20025;-89
2022/09/10 02:59:47;;;;;;;7.20;1.70;;;;;;;15.09;100.00;97840.50;5022064;28;20041;-90
2022/09/10 03:02:12;;;;;;;5.88;1.48;;;;;;;15.35;100.00;97834.97;5024789;28;20077;-90
2022/09/10 03:04:38;;;;;;;9.05;1.83;;;;;;;15.28;100.00;97832.69;5029057;28;20038;-90
2022/09/10 03:07:03;;;;;;;7.95;1.83;;;;;;;15.28;100.00;97848.44;5029177;28;20029;-91
2022/09/10 03:09:29;;;;;;;7.90;1.70;;;;;;;15.35;100.00;97845.50;5030597;28;20025;-90
2022/09/10 03:11:55;;;;;;;8.02;1.80;;;;;;;15.41;100.00;97844.38;5023148;28;20486;-90
2022/09/10 03:14:22;;;;;;;8.98;1.90;;;;;;;15.38;100.00;97847.13;5022704;28;20478;-91
2022/09/10 03:16:48;;;;;;;9.60;2.17;;;;;;;15.26;100.00;97851.13;5022130;28;20029;-90
2022/09/10 03:19:14;;;;;;;7.03;1.90;;;;;;;15.45;100.00;97845.06;5026991;28;20773;-90
2022/09/10 03:21:46;;;;;;;7.97;1.95;;;;;;;15.38;100.00;97851.53;5024290;28;20033;-90
2022/09/10 03:24:11;;;;;;;6.43;1.73;;;;;;;15.49;100.00;97865.03;5020550;28;20025;-88
2022/09/10 03:26:37;;;;;;;6.55;1.70;;;;;;;15.16;100.00;97860.34;5022979;28;20083;-88
2022/09/10 03:29:03;;;;;;;6.35;1.55;;;;;;;15.48;100.00;97860.72;5022354;28;20496;-87
2022/09/10 03:31:29;;;;;;;9.25;1.85;;;;;;;15.56;100.00;97863.00;5022970;28;20121;-89
2022/09/10 03:33:56;;;;;;;11.85;1.63;;;;;;;15.28;100.00;97867.69;5020483;28;20029;-87
2022/09/10 03:36:22;;;;;;;8.50;1.85;;;;;;;15.19;100.00;97863.66;5044469;28;20068;-88
2022/09/10 03:38:47;;;;;;;9.18;1.67;;;;;;;15.27;100.00;97858.09;5019753;28;20057;-87
2022/09/10 03:41:13;;;;;;;7.10;1.67;;;;;;;15.41;100.00;97854.03;5024102;28;20449;-89
2022/09/10 03:43:39;;;;;;;8.38;1.73;;;;;;;15.34;100.00;97856.91;5014514;28;20055;-90
2022/09/10 03:46:05;;;;;;;7.47;1.80;;;;;;;15.40;100.00;97857.56;5053359;28;20043;-89
2022/09/10 03:48:31;;;;;;;8.15;2.08;;;;;;;15.49;100.00;97860.66;5020345;28;20087;-90
2022/09/10 03:50:56;;;;;;;7.20;1.80;;;;;;;15.41;100.00;97854.03;5021903;28;20045;-91
2022/09/10 03:53:22;;;;;;;8.45;1.60;;;;;;;15.65;100.00;97846.84;5015086;28;20041;-90
2022/09/10 03:55:49;;;;;;;7.78;1.77;;;;;;;15.49;100.00;97851.91;5022809;28;20029;-90
2022/09/10 03:58:16;;;;;;;6.82;1.60;;;;;;;15.45;100.00;97858.22;5033494;28;20055;-89
2022/09/10 04:00:42;;;;;;;8.43;1.52;;;;;;;15.32;100.00;97858.75;5052333;28;20056;-90
2022/09/10 04:03:09;;;;;;;6.75;1.67;;;;;;;15.22;100.00;97860.06;5026202;28;20033;-90
2022/09/10 04:05:38;;;;;;;8.27;1.80;;;;;;;15.30;100.00;97867.63;5031218;28;20158;-90
2022/09/10 04:08:06;;;;;;;7.82;2.20;;;;;;;15.36;100.00;97862.97;5033536;28;20025;-90
2022/09/10 04:10:32;;;;;;;8.35;1.77;;;;;;;15.42;100.00;97861.84;5032141;28;20029;-90
2022/09/10 04:12:57;;;;;;;8.52;1.60;;;;;;;15.33;100.00;97870.97;5028715;28;20032;-90
2022/09/10 04:15:23;;;;;;;8.65;2.03;;;;;;;15.50;100.00;97861.50;5022462;28;20029;-90
2022/09/10 04:17:53;;;;;;;9.13;1.77;;;;;;;15.41;100.00;97859.28;5023381;28;20038;-91
2022/09/10 04:20:20;;;;;;;6.68;1.75;;;;;;;15.49;100.00;97867.66;5024177;28;20486;-89
2022/09/10 04:22:47;;;;;;;10.68;2.40;;;;;;;15.27;100.00;97868.59;5023578;28;20040;-90
2022/09/10 04:25:13;;;;;;;6.00;1.85;;;;;;;15.49;100.00;97867.66;5018682;28;20429;-90
2022/09/10 04:27:38;;;;;;;10.70;1.88;;;;;;;15.36;100.00;97867.34;5023516;28;20040;-89
2022/09/10 04:30:04;;;;;;;8.00;1.85;;;;;;;15.53;100.00;97877.13;5024770;28;20697;-90
2022/09/10 04:32:30;;;;;;;8.73;1.75;;;;;;;15.63;100.00;97881.09;5029121;28;20041;-89
2022/09/10 04:34:55;;;;;;;9.32;2.08;;;;;;;15.61;100.00;97880.28;5024323;28;20029;-89
2022/09/10 04:37:21;;;;;;;10.77;1.83;;;;;;;16.03;100.00;97876.72;5030316;28;20056;-90
2022/09/10 04:39:46;;;;;;;8.57;1.92;;;;;;;15.71;100.00;97883.34;5025099;28;20042;-88
2022/09/10 04:42:14;;;;;;;9.35;2.05;;;;;;;15.21;100.00;97881.13;5026930;28;20560;-90
2022/09/10 04:44:39;;;;;;;8.80;2.10;;;;;;;15.12;100.00;97885.00;5021831;28;20477;-89
2022/09/10 04:47:05;;;;;;;6.53;1.92;;;;;;;15.21;100.00;97886.38;5023188;28;20152;-89
2022/09/10 04:49:31;;;;;;;9.95;1.95;;;;;;;15.08;100.00;97886.91;5056474;28;20041;-90
2022/09/10 04:51:56;;;;;;;7.65;2.05;;;;;;;14.94;100.00;97892.72;5027288;28;20108;-89
2022/09/10 04:54:22;;;;;;;8.00;1.90;;;;;;;14.98;100.00;97894.31;5022204;28;20046;-90
2022/09/10 04:56:48;;;;;;;6.78;1.77;;;;;;;15.04;100.00;97892.34;5028525;28;20051;-90
2022/09/10 04:59:14;;;;;;;11.40;2.17;;;;;;;15.12;100.00;97890.25;5023351;28;20040;-90
2022/09/10 05:01:39;;;;;;;9.48;2.13;;;;;;;15.07;100.00;97898.31;5015578;28;20485;-89
2022/09/10 05:04:05;;;;;;;7.97;2.00;;;;;;;15.05;100.00;97904.56;5029859;28;20044;-90
2022/09/10 05:06:30;;;;;;;11.82;2.20;;;;;;;15.26;100.00;97901.03;5023505;28;20039;-89
2022/09/10 05:08:56;;;;;;;10.82;2.50;;;;;;;15.30;100.00;97902.63;5025212;28;20029;-89
2022/09/10 05:11:22;;;;;;;12.43;2.10;;;;;;;15.45;100.00;97901.13;5026462;28;20041;-89
2022/09/10 05:13:48;;;;;;;12.38;2.63;;;;;;;15.48;100.00;97910.66;5029840;28;20029;-89
2022/09/10 05:16:13;;;;;;;10.55;2.03;;;;;;;15.41;100.00;97901.34;5025774;28;20587;-89
2022/09/10 05:18:39;;;;;;;20.73;2.83;;;;;;;15.30;100.00;97905.25;5028503;28;20040;-90
2022/09/10 05:21:04;;;;;;;8.95;2.10;;;;;;;15.28;100.00;97904.47;5033333;28;20029;-91
2022/09/10 05:23:30;;;;;;;10.75;2.45;;;;;;;15.33;100.00;97920.88;5025465;28;20080;-90
2022/09/10 05:25:57;;;;;;;10.35;2.42;;;;;;;15.42;100.00;97906.53;5024937;28;20033;-89
2022/09/10 05:28:23;;;;;;;8.85;2.63;;;;;;;15.27;100.00;97912.41;5020289;28;20032;-90
2022/09/10 05:30:49;;;;;;;8.88;2.28;;;;;;;15.49;100.00;97914.97;5020766;28;20033;-91
2022/09/10 05:33:15;;;;;;;13.07;2.47;;;;;;;15.36;100.00;97926.03;5025419;28;20550;-90
2022/09/10 05:35:40;;;;;;;9.43;2.28;;;;;;;15.33;100.00;97918.25;5026293;28;20065;-90
2022/09/10 05:38:07;;;;;;;10.32;2.58;;;;;;;15.30;100.00;97928.03;5028919;28;20061;-88
2022/09/10 05:40:34;;;;;;;10.65;2.28;;;;;;;15.35;100.00;97932.19;5024954;28;20029;-90
2022/09/10 05:42:59;;;;;;;8.40;2.38;;;;;;;15.64;100.00;97930.09;5024268;28;20213;-89
2022/09/10 05:45:25;;;;;;;11.98;2.10;;;;;;;15.65;100.00;97936.22;5021160;28;20026;-88
2022/09/10 05:47:51;;;;;;;9.82;2.45;;;;;;;15.64;100.00;97939.75;5023237;28;20373;-91
2022/09/10 05:50:17;;;;;;;8.15;2.13;;;;;;;15.48;100.00;97942.19;5027106;28;20048;-91
2022/09/10 05:52:43;;;;;;;10.38;1.80;;;;;;;15.40;100.00;97950.38;5021270;28;21000;-91
2022/09/10 05:55:10;;;;;;;8.60;2.30;;;;;;;15.33;100.00;97955.03;5051577;28;20049;-88
2022/09/10 05:57:35;;;;;;;8.35;1.92;;;;;;;15.40;100.00;97946.91;5028841;28;20026;-90
2022/09/10 06:00:07;;;;;;;9.02;2.30;;;;;;;15.30;100.00;97954.31;5018794;28;20409;-90
2022/09/10 06:02:33;;;;;;;7.30;2.00;;;;;;;15.28;100.00;97957.00;5030236;28;20446;-88
2022/09/10 06:04:59;;;;;;;9.85;1.88;;;;;;;15.43;100.00;97957.28;5033206;28;20040;-90
2022/09/10 06:07:28;;;;;;;6.75;1.90;;;;;;;15.15;100.00;97963.66;5035418;28;20028;-88
2022/09/10 06:09:56;;;;;;;8.65;1.92;;;;;;;15.27;100.00;97971.06;5020916;28;20445;-90
2022/09/10 06:12:22;;;;;;;8.88;2.10;;;;;;;15.34;100.00;97969.88;5030159;28;20040;-90
2022/09/10 06:14:48;;;;;;;12.45;2.33;;;;;;;15.24;100.00;97979.06;5022469;28;20038;-90
2022/09/10 06:17:16;;;;;;;10.05;2.30;;;;;;;15.43;100.00;97973.03;5032760;28;20033;-91
2022/09/10 06:19:45;;;;;;;10.30;2.50;;;;;;;15.57;100.00;97981.19;5028917;28;20033;-92
2022/09/10 06:22:12;;;;;;;11.35;2.42;;;;;;;15.28;100.00;97974.53;5026482;28;20033;-92
2022/09/10 06:24:38;;;;;;;10.98;2.63;;;;;;;15.35;100.00;97982.09;5016792;28;20025;-90
2022/09/10 06:27:04;;;;;;;12.25;2.55;;;;;;;15.08;100.00;97986.69;5024692;28;20048;-91
2022/09/10 06:29:35;;;;;;;15.30;3.08;;;;;;;15.26;100.00;97992.13;5021276;28;20065;-90
2022/09/10 06:32:01;;;;;;;7.63;2.45;;;;;;;15.04;100.00;97990.34;5027380;28;20036;-90
2022/09/10 06:34:27;;;;;;;12.73;2.70;;;;;;;15.42;100.00;97992.34;5020934;28;20048;-91
2022/09/10 06:36:54;;;;;;;15.82;2.97;;;;;;;15.23;100.00;97993.09;5023864;28;20044;-88
2022/09/10 06:39:19;;;;;;;14.00;2.67;;;;;;;15.11;100.00;97998.84;5018623;28;20033;-88
2022/09/10 06:41:45;;;;;;;12.70;2.55;;;;;;;15.19;100.00;97996.78;5021954;28;20032;-89
2022/09/10 06:44:11;;;;;;;13.43;2.75;;;;;;;15.18;100.00;98005.56;5016867;28;20022;-88
2022/09/10 06:46:37;;;;;;;10.77;3.10;;;;;;;15.07;100.00;98005.97;5027845;28;20037;-90
2022/09/10 06:49:04;;;;;;;13.70;3.00;;;;;;;15.19;100.00;98008.13;5026511;28;20562;-90
2022/09/10 06:51:30;;;;;;;13.68;2.67;;;;;;;14.83;100.00;98020.94;5026077;28;20040;-91
2022/09/10 06:53:56;;;;;;;16.08;2.70;;;;;;;14.82;100.00;98019.22;5026856;28;20397;-92
2022/09/10 06:56:22;;;;;;;9.75;2.60;;;;;;;15.00;100.00;98021.16;5022009;28;20819;-92
2022/09/10 06:58:47;;;;;;;9.90;2.70;;;;;;;14.92;100.00;98035.47;5023403;28;20091;-90
2022/09/10 07:01:18;;;;;;;9.05;2.58;;;;;;;15.16;100.00;98034.50;5018289;28;20473;-90
2022/09/10 07:03:45;;;;;;;14.30;2.85;;;;;;;15.22;100.00;98036.03;5018998;28;20048;-90
2022/09/10 07:06:14;;;;;;;9.35;3.08;;;;;;;15.25;100.00;98051.69;5021969;28;20039;-90
2022/09/10 07:08:39;;;;;;;19.73;2.97;;;;;;;15.17;100.00;98054.63;5025500;28;20040;-90
2022/09/10 07:11:10;;;;;;;8.75;2.47;;;;;;;14.96;100.00;98058.94;5047875;28;20033;-90
2022/09/10 07:13:36;;;;;;;12.85;3.20;;;;;;;15.01;100.00;98072.72;5015254;28;20079;-91
2022/09/10 07:16:02;;;;;;;12.55;3.00;;;;;;;15.01;100.00;98072.72;5023438;28;20038;-91
2022/09/10 07:18:29;;;;;;;11.90;2.88;;;;;;;14.99;100.00;98078.97;5020433;28;20232;-91
2022/09/10 07:21:06;;;;;;;9.77;2.63;;;;;;;15.02;100.00;98077.06;5023832;28;20485;-92
2022/09/10 07:23:32;;;;;;;13.75;3.00;;;;;;;15.02;100.00;98078.84;5030149;28;20575;-92
2022/09/10 07:26:10;;;;;;;8.32;2.22;;;;;;;15.06;100.00;98069.06;5021378;28;20021;-92
2022/09/10 07:28:36;;;;;;;11.55;2.67;;;;;;;15.08;100.00;98068.09;5027500;28;20056;-92
2022/09/10 07:31:14;;;;;;;11.80;2.72;;;;;;;15.14;100.00;98080.13;5055158;28;20095;-92
2022/09/10 07:33:40;;;;;;;14.18;2.92;;;;;;;15.18;100.00;98072.09;5020601;28;20030;-94
2022/09/10 07:36:07;;;;;;;12.45;2.53;;;;;;;15.35;100.00;98076.69;5029378;28;20474;-93
2022/09/10 07:38:32;;;;;;;11.73;2.70;;;;;;;15.54;100.00;98078.56;5029049;28;20045;-93
2022/09/10 07:40:59;;;;;;;10.50;2.40;;;;;;;15.68;100.00;98083.28;5030535;28;20025;-94
2022/09/10 07:43:25;;;;;;;11.65;3.17;;;;;;;15.31;100.00;98090.84;5026606;28;20052;-94
2022/09/10 07:45:50;;;;;;;10.18;2.72;;;;;;;15.39;100.00;98087.06;5028644;28;20049;-91
2022/09/10 07:48:15;;;;;;;10.93;2.30;;;;;;;15.22;100.00;98085.09;5031385;28;20034;-94
2022/09/10 07:50:41;;;;;;;11.52;2.70;;;;;;;15.34;100.00;98098.63;5020308;28;20536;-93
2022/09/10 07:53:06;;;;;;;13.43;2.67;;;;;;;15.30;100.00;98099.66;5030939;28;20034;-93
2022/09/10 07:55:32;;;;;;;13.85;3.58;;;;;;;15.38;100.00;98107.25;5026491;28;20045;-94
2022/09/10 07:57:58;;;;;;;12.07;2.97;;;;;;;15.41;100.00;98098.38;5029003;28;20082;-94
2022/09/10 08:00:23;;;;;;;13.45;2.78;;;;;;;15.72;100.00;98107.69;5028850;28;20048;-92
2022/09/10 08:02:48;;;;;;;8.45;2.40;;;;;;;15.34;100.00;98113.53;5028573;28;20045;-96
2022/09/10 08:05:15;;;;;;;13.15;2.30;;;;;;;15.80;100.00;98111.72;5030623;28;20056;-93
2022/09/10 08:07:41;;;;;;;13.20;2.35;;;;;;;15.51;100.00;98120.75;5022256;28;20045;-92
2022/09/10 08:10:09;;;;;;;9.25;2.25;;;;;;;15.79;100.00;98117.91;5070896;28;20033;-92
2022/09/10 08:12:39;;;;;;;13.60;2.25;;;;;;;15.91;100.00;98124.44;5039612;28;20044;-92
2022/09/10 08:15:06;;;;;;;10.68;2.13;;;;;;;15.74;100.00;98130.34;5026126;28;20040;-93
2022/09/10 08:17:32;;;;;;;8.77;2.40;;;;;;;15.94;100.00;98126.94;5029054;28;20116;-94
2022/09/10 08:19:58;;;;;;;8.38;2.00;;;;;;;15.92;100.00;98139.31;5027625;28;20196;-93
2022/09/10 08:22:23;;;;;;;7.65;1.83;;;;;;;15.81;100.00;98138.88;5031845;28;20045;-94
2022/09/10 08:24:49;;;;;;;9.60;1.92;;;;;;;16.08;100.00;98134.25;5028696;28;20078;-94
2022/09/10 08:27:15;;;;;;;9.98;2.10;;;;;;;16.30;100.00;98146.53;5027644;28;20033;-93
2022/09/10 08:29:41;;;;;;;8.32;1.90;;;;;;;16.27;100.00;98144.88;5028596;28;20412;-93
2022/09/10 08:32:07;;;;;;;7.68;2.00;;;;;;;15.84;100.00;98151.91;5025924;28;20041;-94
2022/09/10 08:34:33;;;;;;;6.80;1.60;;;;;;;16.27;100.00;98152.78;5059948;28;20048;-93
2022/09/10 08:37:00;;;;;;;8.52;1.77;;;;;;;16.07;100.00;98142.22;5027727;28;20041;-93
2022/09/10 08:39:26;;;;;;;9.35;1.73;;;;;;;16.35;100.00;98150.69;5027704;28;20176;-92
2022/09/10 08:42:00;;;;;;;7.80;1.83;;;;;;;16.03;100.00;98158.13;5028344;28;20107;-94
2022/09/10 08:44:48;;;;;;;10.63;2.08;;;;;;;15.96;100.00;98167.16;5021883;28;20029;-94
2022/09/10 08:47:29;;;;;;;10.02;1.85;;;;;;;15.73;100.00;98173.34;5028038;28;20032;-92
2022/09/10 08:50:12;;;;;;;7.75;2.17;;;;;;;15.55;100.00;98166.19;5016121;28;20034;-95
2022/09/10 08:52:47;;;;;;;12.45;2.30;;;;;;;15.81;100.00;98167.78;5044990;28;20034;-94
2022/09/10 08:55:16;;;;;;;8.23;1.83;;;;;;;15.60;100.00;98165.06;5050348;28;20483;-94
2022/09/10 08:57:49;;;;;;;12.77;2.33;;;;;;;15.66;100.00;98171.88;5028035;28;20410;-93
2022/09/10 09:00:23;;;;;;;8.05;2.20;;;;;;;15.77;100.00;98177.56;5024173;28;20035;-92
2022/09/10 09:03:00;;;;;;;13.05;2.15;;;;;;;15.58;100.00;98185.28;5026786;28;20508;-93
2022/09/10 09:05:27;;;;;;;13.13;2.10;;;;;;;15.45;100.00;98195.44;5023035;28;20036;-94
2022/09/10 09:07:57;;;;;;;12.60;2.00;;;;;;;15.80;100.00;98200.28;5025340;28;20209;-93
2022/09/10 09:11:02;;;;;;;14.85;2.58;;;;;;;15.65;100.00;98205.16;5019248;28;20041;-94
2022/09/10 09:14:06;;;;;;;8.13;2.08;;;;;;;15.69;100.00;98217.28;5044659;28;20044;-94
2022/09/10 09:17:05;;;;;;;8.68;2.08;;;;;;;15.60;100.00;98217.66;5036337;28;20037;-95
2022/09/10 09:19:39;;;;;;;7.75;1.95;;;;;;;15.99;100.00;98209.16;5043291;28;20037;-93
2022/09/10 09:22:38;;;;;;;8.05;2.33;;;;;;;16.16;100.00;98204.97;5040447;28;20044;-96
2022/09/10 09:25:19;;;;;;;9.13;2.40;;;;;;;16.35;100.00;98203.31;5037734;28;20037;-95
2022/09/10 09:27:46;;;;;;;6.93;1.90;;;;;;;16.44;100.00;98203.84;5044918;28;20029;-95
2022/09/10 09:30:18;;;;;;;7.85;2.30;;;;;;;16.67;100.00;98201.09;5028026;28;20055;-92
2022/09/10 09:32:45;;;;;;;9.48;2.00;;;;;;;16.35;100.00;98208.56;5039785;28;20528;-90
2022/09/10 09:35:21;;;;;;;10.10;2.20;;;;;;;16.64;100.00;98211.72;5034143;28;20033;-94
2022/09/10 09:37:47;;;;;;;8.63;2.00;;;;;;;16.61;100.00;98219.78;5026925;28;20037;-96
2022/09/10 09:40:24;;;;;;;9.98;2.30;;;;;;;16.70;100.00;98221.16;5025895;28;20111;-92
2022/09/10 09:42:58;;;;;;;8.55;2.10;;;;;;;16.79;100.00;98227.81;5027681;28;20062;-94
2022/09/10 09:45:44;;;;;;;7.70;1.90;;;;;;;16.67;100.00;98227.44;5028698;28;20048;-92
2022/09/10 09:48:15;;;;;;;9.75;3.67;;;;;;;17.18;100.00;98235.78;5026887;28;20036;-92
2022/09/10 09:50:46;;;;;;;10.57;2.35;;;;;;;16.70;100.00;98234.31;5027753;28;20045;-95
2022/09/10 09:53:24;;;;;;;6.72;1.80;;;;;;;16.48;100.00;98244.91;5028055;28;20059;-94
2022/09/10 09:55:55;;;;;;;11.57;2.30;;;;;;;16.71;100.00;98244.81;5029002;28;20045;-94
2022/09/10 09:58:20;;;;;;;8.65;2.03;;;;;;;16.76;100.00;98251.63;5024643;28;20047;-93
2022/09/10 10:00:49;;;;;;;9.57;2.05;;;;;;;16.34;100.00;98259.47;5027980;28;20490;-93
2022/09/10 10:03:23;;;;;;;8.88;1.90;;;;;;;16.59;100.00;98241.81;5027346;28;20041;-95
2022/09/10 10:05:49;;;;;;;8.45;1.80;;;;;;;16.43;100.00;98254.75;5017119;28;20541;-93
2022/09/10 10:08:24;;;;;;;7.05;1.70;;;;;;;16.94;100.00;98257.91;5045376;28;20091;-93
2022/09/10 10:10:51;;;;;;;10.88;1.90;;;;;;;16.93;100.00;98272.88;5022827;28;20041;-93
2022/09/10 10:13:20;;;;;;;6.60;1.60;;;;;;;17.11;100.00;98270.38;5017439;28;20029;-93
2022/09/10 10:15:46;;;;;;;7.75;1.80;;;;;;;16.81;100.00;98276.00;5029408;28;20057;-92
2022/09/10 10:18:20;;;;;;;7.57;1.70;;;;;;;16.88;100.00;98273.09;5016854;28;20072;-92
2022/09/10 10:20:48;;;;;;;7.88;1.98;;;;;;;16.82;100.00;98273.28;5023961;28;20496;-91
2022/09/10 10:23:35;;;;;;;7.78;1.65;;;;;;;17.24;100.00;98274.19;5022815;28;20045;-91
2022/09/10 10:26:15;;;;;;;11.63;1.70;;;;;;;17.30;100.00;98278.31;5025372;28;20512;-95
2022/09/10 10:28:53;;;;;;;8.40;2.03;;;;;;;17.14;100.00;98275.50;5023799;28;20124;-92
2022/09/10 10:31:19;;;;;;;7.07;1.70;;;;;;;17.20;100.00;98281.38;5011762;28;20061;-93
2022/09/10 10:34:08;;;;;;;9.50;1.67;;;;;;;17.58;100.00;98280.59;5006492;28;20038;-93
2022/09/10 10:36:37;;;;;;;6.60;1.70;;;;;;;17.51;100.00;98281.81;5022100;28;20041;-94
2022/09/10 10:39:23;;;;;;;6.63;1.45;;;;;;;17.58;100.00;98277.97;5025701;28;20064;-94
2022/09/10 10:42:09;;;;;;;5.20;1.30;;;;;;;17.27;100.00;98283.72;5025795;28;20075;-93
2022/09/10 10:44:57;;;;;;;5.20;1.30;;;;;;;16.98;100.00;98288.47;5025795;28;20073;-94
2022/09/10 10:47:57;;;;;;;7.35;1.67;;;;;;;17.01;100.00;98291.00;5016851;28;20041;-95
2022/09/10 10:50:29;;;;;;;8.07;1.60;;;;;;;17.23;100.00;98296.22;5039766;28;20102;-93
2022/09/10 10:53:17;;;;;;;8.15;1.50;;;;;;;17.52;100.00;98296.66;5008128;28;20042;-92
2022/09/10 10:56:18;;;;;;;7.85;1.55;;;;;;;17.53;100.00;98290.47;5020591;28;20452;-92
2022/09/10 10:59:34;;;;;;;6.55;1.70;;;;;;;17.44;100.00;98291.75;5026771;28;20068;-92
2022/09/10 11:02:32;;;;;;;8.55;1.63;;;;;;;17.50;100.00;98295.91;5002070;28;20034;-93
2022/09/10 11:05:04;;;;;;;8.15;1.65;;;;;;;17.64;100.00;98298.75;4991233;28;20046;-94
2022/09/10 11:07:40;;;;;;;8.37;2.10;;;;;;;18.28;100.00;98296.72;4986849;28;20064;-93
2022/09/10 11:10:23;;;;;;;7.00;1.60;;;;;;;18.06;100.00;98299.53;4985591;28;20111;-93
2022/09/10 11:12:56;;;;;;;8.35;1.40;;;;;;;18.54;100.00;98292.81;4984643;28;20076;-93
2022/09/10 11:15:34;;;;;;;6.32;1.30;;;;;;;18.25;100.00;98294.25;4987860;28;20084;-93
2022/09/10 11:18:06;;;;;;;6.13;1.50;;;;;;;18.67;100.00;98298.34;4984434;28;20768;-95
2022/09/10 11:20:37;;;;;;;9.02;1.52;;;;;;;18.38;100.00;98310.34;5003718;28;20057;-92
2022/09/10 11:23:30;;;;;;;6.07;1.42;;;;;;;18.42;100.00;98310.09;4990184;28;20041;-92
2022/09/10 11:26:07;;;;;;;8.18;1.52;;;;;;;18.49;100.00;98312.47;4984425;28;20084;-92
2022/09/10 11:28:38;;;;;;;9.18;1.40;;;;;;;18.22;100.00;98316.34;5016307;28;20103;-92
2022/09/10 11:31:11;;;;;;;5.97;1.20;;;;;;;18.19;100.00;98320.91;4984043;28;20040;-95
2022/09/10 11:34:03;;;;;;;6.68;1.20;;;;;;;18.05;100.00;98317.16;5003536;28;20036;-90
2022/09/10 11:36:38;;;;;;;6.93;1.40;;;;;;;17.75;100.00;98325.50;5032049;28;20052;-93
2022/09/10 11:39:13;;;;;;;7.35;1.40;;;;;;;17.60;100.00;98320.91;5027970;28;20044;-94